Time;durP1;ratioP1;P1;durP2;ratioP2;P2;SDS_P1;SDS_P2;PMS_P1;PMS_P2;Temp;Humidity;BMP_temperature;BMP_pressure;BME280_temperature;BME280_humidity;BME280_pressure;Samples;Min_cycle;Max_cycle;Signal;HPM_P1;HPM_P2
2023/06/07 00:00:12;;;;;;;12.50;5.17;;;;;;;17.81;49.85;100384.63;4237715;28;20386;-71
2023/06/07 00:02:39;;;;;;;10.70;4.77;;;;;;;17.86;49.98;100395.84;4247468;28;20234;-71
2023/06/07 00:05:12;;;;;;;12.50;4.87;;;;;;;17.74;50.77;100388.16;4231353;28;20408;-69
2023/06/07 00:07:39;;;;;;;14.40;4.43;;;;;;;17.81;49.75;100393.72;4252616;28;20234;-68
2023/06/07 00:10:06;;;;;;;10.53;4.43;;;;;;;17.85;49.12;100386.78;4241265;28;20316;-69
2023/06/07 00:12:33;;;;;;;10.23;4.10;;;;;;;17.82;48.55;100389.94;4243620;28;20322;-69
2023/06/07 00:15:00;;;;;;;11.53;4.70;;;;;;;17.92;48.54;100391.47;4248608;28;20285;-70
2023/06/07 00:17:30;;;;;;;10.03;4.37;;;;;;;17.86;48.78;100393.13;4253703;28;20238;-72
2023/06/07 00:19:57;;;;;;;10.23;4.27;;;;;;;17.88;48.32;100388.28;4237787;28;20233;-70
2023/06/07 00:22:23;;;;;;;14.10;4.10;;;;;;;17.95;48.17;100389.22;4239805;28;20485;-69
2023/06/07 00:24:53;;;;;;;12.87;4.33;;;;;;;17.99;47.73;100382.31;4244183;28;20748;-72
2023/06/07 00:27:20;;;;;;;11.67;4.90;;;;;;;17.93;48.28;100383.06;4242231;28;20258;-68
2023/06/07 00:29:46;;;;;;;10.67;4.70;;;;;;;17.86;48.85;100382.16;4233923;28;20231;-69
2023/06/07 00:32:13;;;;;;;15.13;4.50;;;;;;;17.83;48.80;100379.81;4251061;28;20229;-70
2023/06/07 00:34:40;;;;;;;10.67;4.83;;;;;;;17.81;48.49;100380.00;4241395;28;20237;-72
2023/06/07 00:37:06;;;;;;;11.53;4.63;;;;;;;17.82;48.78;100376.25;4249795;28;20230;-72
2023/06/07 00:39:33;;;;;;;14.17;5.13;;;;;;;17.80;48.66;100375.56;4242643;28;20303;-70
2023/06/07 00:41:59;;;;;;;11.17;4.33;;;;;;;17.70;49.25;100383.25;4245233;28;20711;-69
2023/06/07 00:44:26;;;;;;;19.00;5.23;;;;;;;17.65;49.66;100381.09;4246607;28;20299;-73
2023/06/07 00:46:53;;;;;;;11.60;4.67;;;;;;;17.74;48.74;100379.09;4252559;28;20281;-71
2023/06/07 00:49:20;;;;;;;11.87;4.50;;;;;;;17.75;48.79;100380.78;4248323;28;20335;-71
2023/06/07 00:51:46;;;;;;;13.27;4.73;;;;;;;17.67;48.93;100370.81;4250346;28;25645;-71
2023/06/07 00:54:17;;;;;;;15.07;4.37;;;;;;;17.61;49.23;100368.88;4247526;28;20602;-71
2023/06/07 00:56:49;;;;;;;11.97;4.77;;;;;;;17.50;49.71;100377.59;4231326;28;20230;-71
2023/06/07 00:59:19;;;;;;;9.77;4.20;;;;;;;17.56;49.26;100372.19;4226668;28;20242;-69
2023/06/07 01:01:48;;;;;;;7.27;4.10;;;;;;;17.49;49.46;100364.94;4248154;28;20268;-71
2023/06/07 01:04:18;;;;;;;11.27;4.20;;;;;;;17.56;49.17;100365.88;4250872;28;20238;-71
2023/06/07 01:06:45;;;;;;;8.80;4.43;;;;;;;17.51;49.78;100369.19;4260040;28;20468;-70
2023/06/07 01:09:13;;;;;;;9.57;4.87;;;;;;;17.46;50.13;100370.81;4246819;28;20374;-65
2023/06/07 01:11:45;;;;;;;12.57;4.70;;;;;;;17.30;50.52;100369.16;4249033;28;20478;-65
2023/06/07 01:14:12;;;;;;;12.53;5.10;;;;;;;17.16;51.21;100363.53;4245482;28;21135;-65
2023/06/07 01:16:39;;;;;;;12.63;4.70;;;;;;;17.07;51.75;100364.72;4250968;28;20231;-65
2023/06/07 01:19:06;;;;;;;8.87;4.20;;;;;;;17.03;51.10;100361.50;4238249;28;20231;-65
2023/06/07 01:21:35;;;;;;;9.30;4.40;;;;;;;17.01;51.33;100360.84;4245053;28;21085;-64
2023/06/07 01:24:03;;;;;;;13.53;4.63;;;;;;;16.93;52.06;100358.22;4252872;28;20427;-66
2023/06/07 01:26:29;;;;;;;12.40;4.80;;;;;;;16.76;52.41;100371.25;4245047;28;20230;-65
2023/06/07 01:29:05;;;;;;;9.03;4.40;;;;;;;16.66;52.94;100368.75;4238360;28;22339;-64
2023/06/07 01:31:35;;;;;;;13.27;5.10;;;;;;;16.64;52.70;100365.41;4241000;28;20377;-64
2023/06/07 01:34:04;;;;;;;12.90;4.73;;;;;;;16.56;53.01;100371.78;4246530;28;20234;-64
2023/06/07 01:36:31;;;;;;;12.70;5.63;;;;;;;16.52;53.75;100364.16;4253502;28;21089;-65
2023/06/07 01:38:59;;;;;;;16.80;6.43;;;;;;;16.39;54.57;100362.94;4256121;28;20306;-65
2023/06/07 01:41:28;;;;;;;16.77;6.17;;;;;;;16.24;55.43;100367.53;4235854;28;20237;-64
2023/06/07 01:43:58;;;;;;;19.30;6.13;;;;;;;16.14;55.12;100363.19;4244539;28;20235;-65
2023/06/07 01:46:26;;;;;;;11.67;5.90;;;;;;;16.04;55.85;100361.75;4248289;28;20284;-64
2023/06/07 01:48:52;;;;;;;16.50;6.00;;;;;;;15.92;56.55;100358.63;4249021;28;22976;-65
2023/06/07 01:51:19;;;;;;;15.70;6.10;;;;;;;15.83;56.78;100357.84;4248731;28;20235;-67
2023/06/07 01:53:48;;;;;;;15.37;6.00;;;;;;;15.75;57.40;100361.44;4262038;28;21791;-64
2023/06/07 01:56:27;;;;;;;14.57;5.90;;;;;;;15.72;57.10;100367.28;4251081;28;21430;-65
2023/06/07 01:59:08;;;;;;;13.27;5.90;;;;;;;15.62;57.11;100366.69;4241546;28;21074;-65
2023/06/07 02:01:45;;;;;;;17.90;5.73;;;;;;;15.52;57.69;100361.47;4274712;28;20367;-64
2023/06/07 02:04:16;;;;;;;15.87;6.50;;;;;;;15.43;57.64;100360.69;4228989;28;20259;-65
2023/06/07 02:06:44;;;;;;;19.03;6.37;;;;;;;15.41;57.53;100360.03;4235844;28;20234;-66
2023/06/07 02:09:11;;;;;;;21.80;6.13;;;;;;;15.42;57.39;100359.00;4222805;28;20247;-64
2023/06/07 02:11:39;;;;;;;19.57;6.60;;;;;;;15.36;57.16;100352.38;4226738;28;20699;-67
2023/06/07 02:14:07;;;;;;;10.77;6.17;;;;;;;15.32;57.33;100353.78;4224385;28;20239;-64
2023/06/07 02:16:35;;;;;;;16.90;5.63;;;;;;;15.27;57.28;100344.44;4239471;28;20235;-64
2023/06/07 02:19:07;;;;;;;15.70;6.13;;;;;;;15.24;57.31;100350.25;4238467;28;20250;-65
2023/06/07 02:21:35;;;;;;;12.57;5.60;;;;;;;15.22;57.29;100353.16;4239870;28;20302;-67
2023/06/07 02:24:01;;;;;;;15.27;6.77;;;;;;;15.17;57.79;100350.13;4236530;28;26145;-64
2023/06/07 02:26:28;;;;;;;12.23;6.00;;;;;;;15.14;57.53;100351.34;4225941;28;20294;-64
2023/06/07 02:28:55;;;;;;;11.33;5.43;;;;;;;15.14;57.38;100348.63;4230335;28;22293;-64
2023/06/07 02:31:21;;;;;;;20.63;6.03;;;;;;;15.16;57.55;100359.34;4240954;28;20243;-66
2023/06/07 02:33:48;;;;;;;15.17;5.63;;;;;;;15.30;56.35;100353.09;4248425;28;20230;-64
2023/06/07 02:36:17;;;;;;;12.20;5.77;;;;;;;15.23;56.91;100343.94;4233861;28;20355;-64
2023/06/07 02:38:44;;;;;;;14.57;6.43;;;;;;;15.16;57.20;100341.09;4235884;28;21868;-64
2023/06/07 02:41:10;;;;;;;11.80;5.50;;;;;;;15.13;57.21;100351.50;4237138;28;22353;-68
2023/06/07 02:43:37;;;;;;;12.90;5.53;;;;;;;15.15;57.46;100347.56;4226654;28;20234;-66
2023/06/07 02:46:04;;;;;;;15.77;6.03;;;;;;;15.14;57.51;100350.47;4242639;28;20231;-64
2023/06/07 02:48:30;;;;;;;10.47;5.27;;;;;;;15.14;57.31;100354.06;4220558;28;20239;-65
2023/06/07 02:50:57;;;;;;;14.97;5.77;;;;;;;15.12;57.83;100355.25;4246153;28;20253;-66
2023/06/07 02:53:24;;;;;;;13.17;5.87;;;;;;;15.08;57.80;100348.47;4249814;28;21716;-64
2023/06/07 02:55:51;;;;;;;18.23;6.10;;;;;;;15.11;57.59;100351.69;4239519;28;20259;-66
2023/06/07 02:58:18;;;;;;;12.13;5.53;;;;;;;15.18;57.30;100346.38;4206554;28;20241;-64
2023/06/07 03:00:49;;;;;;;15.23;5.70;;;;;;;15.22;57.08;100355.88;4235495;28;20244;-66
2023/06/07 03:03:16;;;;;;;12.23;5.27;;;;;;;15.38;56.10;100360.38;4240489;28;21798;-67
2023/06/07 03:05:46;;;;;;;14.90;5.60;;;;;;;15.57;55.49;100356.31;4251233;28;20602;-64
2023/06/07 03:08:13;;;;;;;14.30;5.83;;;;;;;15.51;55.86;100357.91;4236376;28;20235;-65
2023/06/07 03:10:40;;;;;;;20.60;6.60;;;;;;;15.48;56.15;100366.44;4257778;28;20512;-63
2023/06/07 03:13:06;;;;;;;15.17;6.00;;;;;;;15.49;56.11;100365.41;4245462;28;20237;-64
2023/06/07 03:15:33;;;;;;;11.70;5.40;;;;;;;15.40;56.53;100362.94;4240627;28;20242;-64
2023/06/07 03:18:01;;;;;;;12.10;5.73;;;;;;;15.34;56.94;100356.31;4247694;28;20239;-63
2023/06/07 03:20:28;;;;;;;12.17;5.50;;;;;;;15.48;56.70;100368.34;4237813;28;20836;-66
2023/06/07 03:22:55;;;;;;;19.63;6.47;;;;;;;15.44;56.68;100359.66;4251436;28;20240;-64
2023/06/07 03:25:22;;;;;;;18.53;6.60;;;;;;;15.46;56.64;100365.78;4254142;28;21170;-64
2023/06/07 03:27:48;;;;;;;13.03;5.63;;;;;;;15.67;55.39;100373.31;4247485;28;20234;-66
2023/06/07 03:30:15;;;;;;;17.93;5.13;;;;;;;15.66;55.90;100368.03;4256723;28;21615;-67
2023/06/07 03:32:43;;;;;;;13.83;5.17;;;;;;;15.75;55.76;100368.81;4237298;28;22080;-64
2023/06/07 03:35:10;;;;;;;12.67;6.00;;;;;;;15.60;56.01;100361.41;4240617;28;23000;-64
2023/06/07 03:37:36;;;;;;;15.97;5.57;;;;;;;15.62;56.21;100361.22;4243241;28;21071;-64
2023/06/07 03:40:03;;;;;;;12.90;5.70;;;;;;;15.68;55.86;100372.28;4248104;28;23463;-65
2023/06/07 03:42:30;;;;;;;13.37;5.60;;;;;;;15.88;55.28;100371.78;4245692;28;20294;-64
2023/06/07 03:44:57;;;;;;;12.77;5.50;;;;;;;16.06;54.85;100368.72;4243444;28;20284;-65
2023/06/07 03:47:24;;;;;;;18.27;5.93;;;;;;;16.06;54.46;100374.19;4241277;28;20821;-64
2023/06/07 03:49:50;;;;;;;10.00;5.10;;;;;;;16.15;54.51;100372.25;4242561;28;20283;-65
2023/06/07 03:52:17;;;;;;;10.77;5.27;;;;;;;16.25;54.37;100370.06;4245171;28;20321;-65
2023/06/07 03:54:44;;;;;;;15.17;5.07;;;;;;;16.35;54.09;100378.03;4252162;28;20229;-67
2023/06/07 03:57:10;;;;;;;12.80;5.17;;;;;;;16.39;53.85;100373.88;4239131;28;20300;-67
2023/06/07 03:59:37;;;;;;;10.63;5.17;;;;;;;16.49;53.64;100373.59;4238011;28;20338;-65
2023/06/07 04:02:04;;;;;;;14.27;4.83;;;;;;;16.56;53.70;100373.69;4244845;28;21606;-64
2023/06/07 04:04:32;;;;;;;16.57;5.27;;;;;;;16.65;53.61;100369.81;4235802;28;20235;-63
2023/06/07 04:07:01;;;;;;;12.23;5.00;;;;;;;16.79;53.35;100371.69;4245079;28;20245;-67
2023/06/07 04:09:27;;;;;;;13.07;4.90;;;;;;;16.86;52.92;100366.31;4246477;28;20289;-64
2023/06/07 04:11:54;;;;;;;15.27;5.07;;;;;;;17.01;52.51;100360.84;4244242;28;21645;-64
2023/06/07 04:14:21;;;;;;;12.17;5.17;;;;;;;17.13;52.49;100361.22;4249224;28;23206;-65
2023/06/07 04:16:48;;;;;;;17.77;4.80;;;;;;;17.13;52.94;100358.47;4231506;28;20841;-66
2023/06/07 04:19:15;;;;;;;13.90;4.40;;;;;;;17.32;52.15;100364.34;4239387;28;22129;-65
2023/06/07 04:21:41;;;;;;;14.10;4.20;;;;;;;17.42;51.77;100364.88;4247633;28;21163;-63
2023/06/07 04:24:08;;;;;;;17.60;5.60;;;;;;;17.60;51.26;100363.59;4240842;28;20231;-64
2023/06/07 04:26:35;;;;;;;12.57;5.00;;;;;;;17.76;50.86;100367.94;4243380;28;20242;-65
2023/06/07 04:29:02;;;;;;;12.87;5.13;;;;;;;17.97;49.50;100361.66;4250139;28;20237;-65
2023/06/07 04:31:29;;;;;;;9.20;4.50;;;;;;;18.15;49.40;100361.16;4237916;28;20332;-65
2023/06/07 04:33:57;;;;;;;10.80;4.67;;;;;;;18.32;48.85;100367.16;4244984;28;22237;-67
2023/06/07 04:36:28;;;;;;;14.03;4.63;;;;;;;18.37;48.88;100360.03;4251372;28;20230;-65
2023/06/07 04:38:58;;;;;;;14.50;5.17;;;;;;;18.36;49.41;100362.97;4256606;28;21636;-64
2023/06/07 04:41:30;;;;;;;14.93;4.63;;;;;;;18.43;49.06;100357.53;4255221;28;20657;-64
2023/06/07 04:43:58;;;;;;;13.53;4.43;;;;;;;18.67;47.87;100364.41;4244366;28;22657;-64
2023/06/07 04:46:26;;;;;;;14.20;4.47;;;;;;;18.81;46.96;100363.44;4247775;28;20239;-64
2023/06/07 04:48:53;;;;;;;13.87;4.40;;;;;;;19.00;46.24;100361.03;4247253;28;21459;-64
2023/06/07 04:51:20;;;;;;;12.43;4.97;;;;;;;19.10;45.86;100366.97;4254242;28;20246;-71
2023/06/07 04:53:47;;;;;;;12.93;4.60;;;;;;;19.19;45.74;100366.78;4250084;28;22943;-71
2023/06/07 04:56:14;;;;;;;7.97;3.60;;;;;;;19.26;45.51;100360.25;4226501;28;20237;-70
2023/06/07 04:58:40;;;;;;;6.13;3.50;;;;;;;19.37;45.66;100363.47;4231777;28;25422;-70
2023/06/07 05:01:11;;;;;;;18.47;4.00;;;;;;;19.42;44.99;100364.53;4253215;28;20234;-75
2023/06/07 05:03:41;;;;;;;13.63;4.33;;;;;;;19.50;45.57;100359.88;4241611;28;20478;-72
2023/06/07 05:06:09;;;;;;;13.70;4.40;;;;;;;19.67;45.27;100361.19;4246798;28;20262;-77
2023/06/07 05:08:36;;;;;;;15.20;4.40;;;;;;;19.76;44.78;100359.94;4251444;28;20226;-58
2023/06/07 05:11:03;;;;;;;14.88;4.10;;;;;;;20.04;44.43;100369.06;4258858;28;23160;-72
2023/06/07 05:13:30;;;;;;;11.10;4.13;;;;;;;20.23;43.94;100372.88;4247324;28;22288;-70
2023/06/07 05:15:57;;;;;;;10.00;4.03;;;;;;;20.45;43.27;100362.44;4239500;28;21389;-70
2023/06/07 05:18:24;;;;;;;13.33;4.13;;;;;;;20.71;42.76;100367.03;4242305;28;20330;-69
2023/06/07 05:20:51;;;;;;;11.00;3.97;;;;;;;20.97;42.47;100365.28;4251458;28;20423;-69
2023/06/07 05:23:17;;;;;;;17.70;3.63;;;;;;;21.12;42.85;100362.25;4236611;28;20235;-70
2023/06/07 05:25:45;;;;;;;10.63;3.87;;;;;;;21.35;41.79;100366.38;4230559;28;20270;-70
2023/06/07 05:28:12;;;;;;;15.23;5.13;;;;;;;21.89;40.75;100366.03;4250825;28;20346;-70
2023/06/07 05:30:40;;;;;;;17.73;5.07;;;;;;;22.50;39.11;100374.63;4253140;28;21322;-72
2023/06/07 05:33:06;;;;;;;14.77;3.80;;;;;;;22.97;37.80;100371.34;4235592;28;22292;-69
2023/06/07 05:35:33;;;;;;;15.83;4.03;;;;;;;23.37;37.55;100371.72;4248133;28;20253;-69
2023/06/07 05:38:01;;;;;;;14.00;4.20;;;;;;;23.73;36.79;100364.38;4246421;28;22775;-80
2023/06/07 05:40:27;;;;;;;13.13;4.00;;;;;;;24.11;36.17;100372.50;4235988;28;21660;-69
2023/06/07 05:42:56;;;;;;;16.17;3.33;;;;;;;24.89;34.59;100370.41;4237706;28;21605;-70
2023/06/07 05:45:23;;;;;;;13.13;3.57;;;;;;;25.40;33.95;100375.34;4241764;28;20320;-69
2023/06/07 05:47:50;;;;;;;10.73;3.20;;;;;;;25.63;32.78;100371.59;4239860;28;23418;-69
2023/06/07 05:50:19;;;;;;;17.50;3.00;;;;;;;26.26;31.90;100372.41;4254951;28;21057;-67
2023/06/07 05:52:50;;;;;;;10.47;3.37;;;;;;;26.44;31.76;100372.41;4258711;28;20423;-66
2023/06/07 05:55:17;;;;;;;17.65;3.70;;;;;;;27.33;29.94;100376.91;4245208;28;20683;-70
2023/06/07 05:57:44;;;;;;;14.50;3.22;;;;;;;26.80;30.88;100371.00;4259450;28;20335;-69
2023/06/07 06:00:11;;;;;;;11.43;3.45;;;;;;;26.95;31.08;100372.28;4239769;28;20227;-67
2023/06/07 06:02:41;;;;;;;10.88;3.38;;;;;;;26.94;31.15;100379.78;4240606;28;20255;-68
2023/06/07 06:05:08;;;;;;;13.75;3.85;;;;;;;27.26;30.78;100373.50;4234804;28;21893;-69
2023/06/07 06:07:36;;;;;;;15.65;3.95;;;;;;;28.25;29.69;100381.69;4243985;28;21152;-67
2023/06/07 06:10:04;;;;;;;15.63;4.43;;;;;;;28.73;28.70;100378.97;4255483;28;21805;-70
2023/06/07 06:12:31;;;;;;;18.60;3.97;;;;;;;29.49;27.61;100373.97;4245899;28;22517;-68
2023/06/07 06:14:58;;;;;;;15.30;3.13;;;;;;;30.71;26.35;100376.19;4244834;28;20237;-66
2023/06/07 06:17:25;;;;;;;11.23;3.58;;;;;;;30.31;26.06;100380.69;4237388;28;20365;-71
2023/06/07 06:19:51;;;;;;;21.00;3.70;;;;;;;30.33;26.54;100384.06;4260992;28;25536;-68
2023/06/07 06:22:18;;;;;;;15.73;3.40;;;;;;;29.99;27.22;100381.84;4239120;28;20234;-67
2023/06/07 06:24:45;;;;;;;22.40;3.85;;;;;;;30.50;26.41;100376.25;4256556;28;20420;-68
2023/06/07 06:27:12;;;;;;;21.45;3.70;;;;;;;30.05;26.79;100386.31;4244976;28;20231;-66
2023/06/07 06:29:38;;;;;;;20.55;3.60;;;;;;;29.85;26.72;100384.34;4244020;28;20379;-68
2023/06/07 06:32:06;;;;;;;15.38;2.97;;;;;;;29.36;26.59;100386.47;4292044;28;23625;-66
2023/06/07 06:34:33;;;;;;;9.85;3.35;;;;;;;30.15;26.22;100380.72;4247961;28;25541;-67
2023/06/07 06:37:00;;;;;;;16.90;3.42;;;;;;;30.42;27.62;100381.53;4269942;28;20627;-53
2023/06/07 06:39:27;;;;;;;19.10;3.53;;;;;;;30.35;26.57;100376.25;4235703;28;20278;-69
2023/06/07 06:41:53;;;;;;;13.57;3.28;;;;;;;31.02;25.51;100381.66;4237270;28;20630;-68
2023/06/07 06:44:20;;;;;;;17.60;3.70;;;;;;;30.71;26.23;100372.53;4252083;28;21779;-70
2023/06/07 06:46:48;;;;;;;14.95;3.50;;;;;;;30.62;25.69;100380.69;4229712;28;21736;-69
2023/06/07 06:49:15;;;;;;;12.30;3.30;;;;;;;30.97;24.89;100374.13;4245421;28;20304;-68
2023/06/07 06:51:42;;;;;;;12.70;3.10;;;;;;;31.03;24.99;100379.69;4249930;28;21304;-70
2023/06/07 06:54:12;;;;;;;11.85;3.47;;;;;;;31.47;25.33;100378.91;4252714;28;20334;-67
2023/06/07 06:56:38;;;;;;;15.20;3.25;;;;;;;31.97;23.94;100376.06;4249822;28;20279;-69
2023/06/07 06:59:05;;;;;;;10.20;3.15;;;;;;;31.52;23.96;100378.91;4249673;28;20235;-66
2023/06/07 07:01:43;;;;;;;8.60;2.63;;;;;;;30.85;24.87;100379.22;4252999;28;20257;-66
2023/06/07 07:04:10;;;;;;;10.80;3.20;;;;;;;31.23;24.96;100368.41;4245704;28;20306;-65
2023/06/07 07:06:37;;;;;;;10.10;2.70;;;;;;;31.64;24.36;100367.34;4242475;28;20373;-64
2023/06/07 07:09:03;;;;;;;13.13;2.83;;;;;;;31.00;25.08;100364.31;4263049;28;20241;-67
2023/06/07 07:11:30;;;;;;;16.00;3.03;;;;;;;31.08;24.47;100365.72;4249903;28;21745;-68
2023/06/07 07:13:57;;;;;;;18.65;2.60;;;;;;;31.07;24.10;100370.44;4257225;28;20337;-72
2023/06/07 07:16:24;;;;;;;13.10;2.85;;;;;;;32.08;23.50;100372.06;4246572;28;20235;-63
2023/06/07 07:18:51;;;;;;;13.32;2.85;;;;;;;32.56;23.04;100376.06;4258804;28;20307;-67
2023/06/07 07:21:17;;;;;;;12.13;2.97;;;;;;;31.72;24.88;100375.16;4227137;28;20662;-61
2023/06/07 07:23:46;;;;;;;7.30;2.50;;;;;;;31.16;24.31;100381.88;4245335;28;20602;-67
2023/06/07 07:26:12;;;;;;;7.63;2.90;;;;;;;30.28;25.63;100375.69;4246922;28;20235;-66
2023/06/07 07:28:39;;;;;;;7.20;2.80;;;;;;;29.13;27.42;100385.00;4230168;28;22078;-70
2023/06/07 07:31:06;;;;;;;5.95;2.75;;;;;;;28.89;27.47;100374.31;4230502;28;20541;-69
2023/06/07 07:33:33;;;;;;;9.70;2.53;;;;;;;28.19;28.37;100377.19;4242116;28;20250;-67
2023/06/07 07:36:02;;;;;;;7.65;2.70;;;;;;;28.01;28.73;100374.81;4256305;28;21213;-67
2023/06/07 07:38:32;;;;;;;8.82;3.13;;;;;;;28.25;28.64;100376.13;4242876;28;20226;-68
2023/06/07 07:40:59;;;;;;;13.32;2.88;;;;;;;28.31;28.20;100374.22;4232298;28;25198;-65
2023/06/07 07:43:26;;;;;;;6.18;2.53;;;;;;;28.49;28.45;100374.91;4249011;28;20410;-66
2023/06/07 07:45:57;;;;;;;7.93;2.80;;;;;;;28.56;28.04;100370.75;4239880;28;20302;-66
2023/06/07 07:48:24;;;;;;;20.33;2.90;;;;;;;28.34;28.52;100378.41;4251712;28;25751;-67
2023/06/07 07:50:51;;;;;;;13.32;3.08;;;;;;;28.64;28.59;100372.19;4251542;28;20363;-68
2023/06/07 07:53:18;;;;;;;12.73;3.55;;;;;;;28.58;28.76;100373.28;4249974;28;20243;-66
2023/06/07 07:55:44;;;;;;;14.50;2.63;;;;;;;28.26;28.55;100375.00;4254870;28;23371;-69
2023/06/07 07:58:11;;;;;;;6.97;2.60;;;;;;;27.60;29.13;100367.75;4242253;28;20362;-70
2023/06/07 08:00:39;;;;;;;8.90;3.33;;;;;;;27.73;29.46;100374.84;4257966;28;20232;-71
2023/06/07 08:03:07;;;;;;;9.45;3.03;;;;;;;27.60;29.05;100375.28;4237368;28;20235;-70
2023/06/07 08:05:34;;;;;;;16.58;3.13;;;;;;;27.81;29.77;100374.38;4240272;28;20321;-68
2023/06/07 08:08:00;;;;;;;11.80;2.63;;;;;;;27.87;29.01;100377.19;4273539;28;22358;-69
2023/06/07 08:10:27;;;;;;;12.00;3.08;;;;;;;27.67;29.40;100371.16;4285029;28;20243;-68
2023/06/07 08:12:54;;;;;;;9.57;3.00;;;;;;;28.12;29.04;100374.66;4249496;28;21074;-69
2023/06/07 08:15:20;;;;;;;9.18;2.88;;;;;;;27.75;28.78;100375.44;4270616;28;23615;-68
2023/06/07 08:17:47;;;;;;;12.27;3.63;;;;;;;27.59;30.04;100365.25;4264692;28;21229;-66
2023/06/07 08:20:17;;;;;;;7.68;2.65;;;;;;;28.18;29.00;100377.47;4346090;28;20374;-67
2023/06/07 08:22:44;;;;;;;6.20;3.03;;;;;;;28.42;28.90;100384.31;4272679;28;20227;-67
2023/06/07 08:25:12;;;;;;;8.98;3.53;;;;;;;28.68;29.03;100381.69;4280055;28;20405;-68
2023/06/07 08:27:39;;;;;;;12.55;4.63;;;;;;;28.09;29.28;100371.56;4262262;28;25640;-69
2023/06/07 08:30:07;;;;;;;15.18;4.30;;;;;;;28.10;29.14;100373.22;4259443;28;21634;-73
2023/06/07 08:32:34;;;;;;;16.00;5.55;;;;;;;28.17;29.06;100373.00;4268293;28;22990;-66
2023/06/07 08:35:01;;;;;;;9.60;4.05;;;;;;;28.42;29.26;100375.97;4297800;28;25255;-70
2023/06/07 08:37:28;;;;;;;11.10;3.08;;;;;;;28.46;28.41;100362.34;4273220;28;21761;-69
2023/06/07 08:39:55;;;;;;;12.15;3.50;;;;;;;28.48;28.46;100365.69;4249539;28;22036;-69
2023/06/07 08:42:22;;;;;;;9.63;3.47;;;;;;;28.68;28.07;100376.09;4284844;28;20288;-72
2023/06/07 08:44:49;;;;;;;12.00;3.38;;;;;;;28.72;28.04;100365.28;4258887;28;20239;-68
2023/06/07 08:47:17;;;;;;;9.95;2.97;;;;;;;28.06;28.42;100363.75;4239808;28;20234;-68
2023/06/07 08:49:47;;;;;;;9.27;2.95;;;;;;;27.70;29.34;100355.06;4252164;28;20239;-67
2023/06/07 08:52:15;;;;;;;7.45;2.83;;;;;;;28.04;28.74;100357.56;4254571;28;20408;-67
2023/06/07 08:54:43;;;;;;;11.02;3.17;;;;;;;28.18;28.71;100358.81;4257063;28;20235;-69
2023/06/07 08:57:15;;;;;;;8.57;2.50;;;;;;;28.10;27.90;100364.88;4250160;28;20277;-69
2023/06/07 08:59:44;;;;;;;7.88;2.70;;;;;;;27.98;28.27;100348.34;4256633;28;25367;-65
2023/06/07 09:02:14;;;;;;;7.45;2.83;;;;;;;28.01;27.40;100353.38;4291891;28;25311;-67
2023/06/07 09:04:41;;;;;;;6.95;2.63;;;;;;;28.27;27.60;100367.53;4266252;28;22850;-67
2023/06/07 09:07:09;;;;;;;10.35;2.90;;;;;;;28.20;26.74;100356.59;4251328;28;20238;-67
2023/06/07 09:09:36;;;;;;;7.85;2.80;;;;;;;28.36;25.76;100362.28;4234848;28;20425;-67
2023/06/07 09:12:03;;;;;;;5.35;2.85;;;;;;;27.84;25.92;100370.22;4243584;28;22531;-68
2023/06/07 09:14:29;;;;;;;4.90;2.72;;;;;;;28.20;26.18;100364.13;4253823;28;20247;-66
2023/06/07 09:16:58;;;;;;;6.22;2.70;;;;;;;28.31;25.38;100363.06;4253803;28;22326;-64
2023/06/07 09:19:43;;;;;;;6.67;2.80;;;;;;;27.98;24.55;100362.25;4233620;28;20246;-65
2023/06/07 09:22:14;;;;;;;9.25;2.90;;;;;;;27.92;26.30;100357.75;4247814;28;20314;-66
2023/06/07 09:24:41;;;;;;;6.32;2.60;;;;;;;27.77;26.92;100358.47;4236085;28;26653;-68
2023/06/07 09:27:08;;;;;;;5.07;2.60;;;;;;;28.00;27.16;100362.81;4245653;28;25420;-65
2023/06/07 09:29:39;;;;;;;9.55;3.17;;;;;;;28.14;27.13;100360.47;4233649;28;26094;-67
2023/06/07 09:32:23;;;;;;;4.93;2.75;;;;;;;28.04;27.28;100355.63;4233931;28;21110;-65
2023/06/07 09:34:53;;;;;;;7.20;2.78;;;;;;;27.85;27.21;100355.19;4232143;28;21843;-67
2023/06/07 09:37:22;;;;;;;8.25;3.03;;;;;;;27.73;27.89;100362.84;4246409;28;22856;-68
2023/06/07 09:39:53;;;;;;;7.40;2.95;;;;;;;27.45;28.33;100353.69;4250326;28;20239;-67
2023/06/07 09:42:19;;;;;;;10.25;2.90;;;;;;;27.32;28.64;100360.47;4237244;28;22241;-67
2023/06/07 09:44:46;;;;;;;8.95;3.00;;;;;;;27.55;28.09;100356.59;4242825;28;20227;-65
2023/06/07 09:47:21;;;;;;;11.32;3.03;;;;;;;27.97;28.03;100360.59;4239567;28;25430;-64
2023/06/07 09:49:48;;;;;;;10.70;2.58;;;;;;;27.92;26.92;100353.03;4243300;28;20237;-65
2023/06/07 09:52:15;;;;;;;11.57;2.63;;;;;;;27.47;28.11;100357.06;4233732;28;20321;-63
2023/06/07 09:54:44;;;;;;;8.57;2.70;;;;;;;27.60;27.58;100345.50;4229150;28;20296;-65
2023/06/07 09:57:32;;;;;;;6.93;2.33;;;;;;;28.03;26.74;100353.09;4242077;28;20333;-65
2023/06/07 10:00:14;;;;;;;5.50;2.63;;;;;;;28.36;26.27;100340.00;4239556;28;20312;-65
2023/06/07 10:02:43;;;;;;;8.30;2.95;;;;;;;27.97;27.48;100346.69;4235019;28;20242;-64
2023/06/07 10:05:14;;;;;;;5.10;2.58;;;;;;;27.97;27.35;100330.81;4254284;28;21721;-65
2023/06/07 10:07:45;;;;;;;16.08;3.15;;;;;;;27.95;27.36;100330.22;4241630;28;20239;-67
2023/06/07 10:10:15;;;;;;;9.90;2.50;;;;;;;27.81;26.92;100343.75;4236182;28;21986;-66
2023/06/07 10:12:44;;;;;;;8.10;2.60;;;;;;;27.66;26.76;100341.66;4263171;28;21791;-64
2023/06/07 10:15:31;;;;;;;5.28;2.53;;;;;;;27.56;27.46;100340.75;4256308;28;21156;-64
2023/06/07 10:18:21;;;;;;;6.35;2.28;;;;;;;27.66;27.35;100338.88;4251941;28;20324;-66
2023/06/07 10:20:57;;;;;;;4.38;2.63;;;;;;;27.80;27.10;100327.31;4237659;28;22297;-66
2023/06/07 10:23:39;;;;;;;4.13;2.42;;;;;;;28.39;26.64;100337.53;4238440;28;20237;-65
2023/06/07 10:26:29;;;;;;;8.60;3.55;;;;;;;28.11;27.03;100336.78;4242876;28;20280;-64
2023/06/07 10:29:09;;;;;;;12.02;2.75;;;;;;;28.34;26.48;100320.78;4227080;28;20241;-66
2023/06/07 10:31:53;;;;;;;8.90;2.53;;;;;;;28.87;25.57;100336.69;4244804;28;20237;-68
2023/06/07 10:34:20;;;;;;;8.93;2.75;;;;;;;28.61;26.09;100329.03;4244564;28;20250;-65
2023/06/07 10:36:47;;;;;;;9.77;2.50;;;;;;;28.80;26.54;100320.22;4258422;28;20913;-63
2023/06/07 10:39:14;;;;;;;7.15;2.45;;;;;;;29.41;26.13;100324.31;4267293;28;20231;-63
2023/06/07 10:41:41;;;;;;;6.00;2.70;;;;;;;29.54;25.48;100331.31;4257290;28;20230;-64
2023/06/07 10:44:10;;;;;;;6.10;2.60;;;;;;;28.98;25.29;100320.84;4253387;28;23606;-68
2023/06/07 10:46:36;;;;;;;9.32;2.63;;;;;;;28.67;25.90;100326.25;4244905;28;20231;-64
2023/06/07 10:49:04;;;;;;;8.20;2.55;;;;;;;27.80;27.78;100330.09;4239467;28;25886;-66
2023/06/07 10:51:51;;;;;;;6.45;2.92;;;;;;;28.18;27.71;100332.94;4246535;28;21640;-64
2023/06/07 10:54:31;;;;;;;7.15;2.92;;;;;;;28.30;27.41;100331.63;4238234;28;20421;-64
2023/06/07 10:57:02;;;;;;;7.00;2.75;;;;;;;28.34;27.55;100329.16;4234705;28;22414;-65
2023/06/07 10:59:29;;;;;;;7.75;2.30;;;;;;;27.89;27.31;100322.13;4228073;28;20264;-65
2023/06/07 11:02:18;;;;;;;4.65;2.50;;;;;;;27.60;28.20;100312.16;4247426;28;20231;-64
2023/06/07 11:04:51;;;;;;;10.05;2.97;;;;;;;27.28;28.31;100324.03;4249454;28;20239;-65
2023/06/07 11:07:22;;;;;;;8.38;2.63;;;;;;;27.16;28.55;100321.41;4242724;28;20757;-66
2023/06/07 11:10:09;;;;;;;8.68;2.83;;;;;;;27.19;29.07;100318.13;4261881;28;20230;-66
2023/06/07 11:12:45;;;;;;;7.67;2.70;;;;;;;27.11;29.17;100324.13;4265480;28;25212;-66
2023/06/07 11:15:17;;;;;;;7.35;2.72;;;;;;;27.01;29.14;100327.66;4244076;28;21994;-64
2023/06/07 11:17:56;;;;;;;9.38;2.28;;;;;;;26.62;29.84;100321.31;4235876;28;21359;-65
2023/06/07 11:20:35;;;;;;;5.22;2.60;;;;;;;26.95;29.64;100316.72;4240557;28;20238;-64
2023/06/07 11:23:23;;;;;;;4.35;2.42;;;;;;;27.42;29.56;100312.56;4245288;28;20249;-65
2023/06/07 11:25:54;;;;;;;8.00;2.50;;;;;;;27.50;29.56;100317.59;4245394;28;20301;-66